Aviation Digital Data Service (ADDS)

Output produced by METARs form (2252 UTC 11 December 2017)
found at http://www.aviationweather.gov/adds/metars/
 
KMDT 112156Z 13003KT 10SM BKN100 OVC250 04/M02 A2996 RMK AO2 SLP147 T00391017
KMDT 112056Z 00000KT 10SM BKN130 OVC250 05/M04 A2996 RMK AO2 SLP148 T00501044 58014
KMDT 111956Z VRB03KT 10SM FEW047 BKN200 BKN250 06/M06 A2998 RMK AO2 SLP153 T00561056
KMDT 111856Z 00000KT 10SM FEW047 SCT250 06/M05 A3000 RMK AO2 SLP161 T00611050
KMDT 111756Z 00000KT 10SM SCT047 05/M06 A3000 RMK AO2 SLP163 T00501061 10056 20011 58018
KMDT 111656Z 29006KT 10SM SCT049 05/M06 A3003 RMK AO2 SLP171 T00501056
KMDT 111556Z 30008KT 10SM BKN050 05/M06 A3005 RMK AO2 SLP179 T00501056
KMDT 111456Z 29006KT 10SM SCT050 03/M05 A3006 RMK AO2 SLP181 T00281050 51009
KMDT 111356Z 00000KT 10SM OVC050 02/M04 A3005 RMK AO2 SLP178 T00221039
KMDT 111256Z 00000KT 10SM OVC050 02/M04 A3004 RMK AO2 SLP177 T00171044
KMDT 111156Z 00000KT 10SM OVC050 02/M06 A3003 RMK AO2 SLP173 T00171056 10022 20011 53014
KMDT 111056Z 00000KT 10SM OVC047 01/M04 A3002 RMK AO2 SLP168 T00111044
KMDT 110956Z 27004KT 10SM OVC050 02/M06 A3000 RMK AO2 SLP161 T00171061
KMDT 110856Z 24004KT 10SM OVC050 02/M06 A2999 RMK AO2 SLP158 T00171056 53001
KMDT 110756Z 21007KT 10SM BKN050 OVC060 02/M05 A2998 RMK AO2 SLP156 T00171050
KMDT 110656Z 21007KT 10SM OVC075 02/M05 A2998 RMK AO2 SLP156 T00171050
KMDT 110556Z 20007KT 10SM OVC080 02/M05 A2999 RMK AO2 SLP157 T00171050 10028 20017 58008
KMDT 110456Z 28003KT 10SM BKN070 OVC085 02/M06 A3000 RMK AO2 SLP162 T00221061 400331033
KMDT 110356Z 26005KT 10SM OVC080 02/M07 A3001 RMK AO2 SLP167 T00221067
KMDT 110256Z 24008KT 10SM BKN090 02/M07 A3001 RMK AO2 SLP166 T00221067 51004
KMDT 110156Z 25006KT 10SM BKN110 02/M07 A3001 RMK AO2 SLP166 T00221067
KMDT 110056Z 22004KT 10SM SCT140 02/M06 A3001 RMK AO2 SLP167 T00171061
KMDT 102356Z 21006KT 10SM SCT110 BKN150 02/M06 A3000 RMK AO2 SLP163 T00171056 10033 20017 52006
KMDT 102256Z 22004KT 10SM SCT135 BKN160 02/M06 A2999 RMK AO2 SLP161 T00221061
KMDT 102156Z 26006KT 10SM FEW110 SCT125 BKN170 02/M07 A2999 RMK AO2 SLP158 T00221067
KMDT 102056Z 28011KT 10SM SCT160 BKN175 03/M07 A2998 RMK AO2 SLP156 T00281067 53003
KMDT 101956Z 28013G20KT 10SM BKN050 03/M07 A2997 RMK AO2 SLP152 T00331067
KMDT 101856Z 27014G19KT 10SM BKN050 03/M06 A2996 RMK AO2 SLP151 T00331056
KMDT 101756Z 28012G18KT 10SM OVC055 03/M06 A2997 RMK AO2 SLP153 T00281056 10033 21006 58001
KMDT 101656Z 27010KT 10SM OVC047 02/M05 A2998 RMK AO2 SLP157 VIRGA W-NW T00221050
KMDT 101556Z 27009KT 10SM OVC041 02/M05 A2999 RMK AO2 SLP159 BINOVC T00221050
KMDT 101456Z 28010KT 10SM FEW060 02/M05 A2998 RMK AO2 SLP154 T00221050 51019
KMDT 101356Z 28010KT 10SM FEW060 01/M05 A2996 RMK AO2 SLP150 T00111050
KMDT 101256Z 27007KT 10SM BKN065 01/M05 A2996 RMK AO2 SLP148 T00061050
KMDT 101156Z 29008KT 10SM FEW075 M01/M06 A2992 RMK AO2 SLP136 70008 T10061056 10000 21033 51024
KMDT 101056Z 30004KT 10SM BKN075 M02/M07 A2990 RMK AO2 SLP129 T10171067